Time;durP1;ratioP1;P1;durP2;ratioP2;P2;SDS_P1;SDS_P2;PMS_P1;PMS_P2;Temp;Humidity;BMP_temperature;BMP_pressure;BME280_temperature;BME280_humidity;BME280_pressure;Samples;Min_cycle;Max_cycle;Signal;HPM_P1;HPM_P2
2023/01/20 05:07:30;;;;;;;;;;;;;;;0.94;51.92;96454.03;4201844;27;10444;-72
2023/01/20 05:09:32;;;;;;;;;;;;;;;1.24;51.58;96457.34;4173085;28;5836;-71
2023/01/20 05:11:35;;;;;;;;;;;;;;;1.46;51.36;96457.78;4173194;28;6602;-73
2023/01/20 05:13:39;;;;;;;;;;;;;;;1.67;51.04;96461.94;4179933;28;5824;-72
2023/01/20 05:15:43;;;;;;;;;;;;;;;1.81;50.86;96471.03;4169105;28;6443;-72
2023/01/20 05:17:46;;;;;;;;;;;;;;;1.92;50.75;96468.22;4175762;28;5679;-71
2023/01/20 05:19:49;;;;;;;;;;;;;;;2.02;50.55;96472.41;4164974;28;5755;-71
2023/01/20 05:21:51;;;;;;;;;;;;;;;2.09;50.61;96472.66;4170294;28;5749;-71
2023/01/20 05:23:56;;;;;;;;;;;;;;;2.15;50.36;96477.28;4167456;28;5770;-69
2023/01/20 05:25:59;;;;;;;;;;;;;;;2.20;50.33;96482.88;4179278;28;5725;-71
2023/01/20 05:28:01;;;;;;;;;;;;;;;2.25;50.21;96485.84;4172895;28;5840;-71
2023/01/20 05:30:08;;;;;;;;;;;;;;;2.27;49.91;96501.34;4172790;28;5858;-71
2023/01/20 05:32:11;;;;;;;;;;;;;;;2.29;50.02;96492.41;4176583;28;5749;-71
2023/01/20 05:34:15;;;;;;;;;;;;;;;2.33;49.91;96506.78;4173868;28;5725;-71
2023/01/20 05:36:17;;;;;;;;;;;;;;;2.36;49.90;96508.25;4172000;28;5741;-72
2023/01/20 05:38:20;;;;;;;;;;;;;;;2.38;49.86;96513.34;4179182;28;6486;-71
2023/01/20 05:40:24;;;;;;;;;;;;;;;2.38;49.78;96511.56;4180246;28;5953;-74
2023/01/20 05:42:27;;;;;;;;;;;;;;;2.40;49.72;96508.81;4174983;28;5737;-74
2023/01/20 05:44:30;;;;;;;;;;;;;;;2.43;49.66;96519.75;4172721;28;5871;-74
2023/01/20 05:46:32;;;;;;;;;;;;;;;2.45;49.64;96535.25;4171360;28;5965;-75
2023/01/20 05:48:35;;;;;;;;;;;;;;;2.45;49.58;96532.66;4173957;28;6426;-74
2023/01/20 05:50:38;;;;;;;;;;;;;;;2.45;49.52;96532.66;4175448;28;5904;-75
2023/01/20 05:52:41;;;;;;;;;;;;;;;2.47;49.43;96530.72;4172501;28;5749;-74
2023/01/20 05:54:44;;;;;;;;;;;;;;;2.47;49.33;96538.53;4170772;28;5763;-74
2023/01/20 05:56:49;;;;;;;;;;;;;;;2.50;49.24;96535.66;4173465;28;5748;-74
2023/01/20 05:58:54;;;;;;;;;;;;;;;2.53;49.23;96537.94;4171267;28;5962;-74
2023/01/20 06:01:04;;;;;;;;;;;;;;;2.53;49.09;96540.56;4169378;28;5837;-74
2023/01/20 06:03:07;;;;;;;;;;;;;;;2.54;49.03;96542.19;4172788;28;5740;-72
2023/01/20 06:05:10;;;;;;;;;;;;;;;2.56;48.95;96540.25;4173092;28;5759;-74
2023/01/20 06:07:13;;;;;;;;;;;;;;;2.59;48.98;96545.16;4167165;28;5732;-73
2023/01/20 06:09:16;;;;;;;;;;;;;;;2.59;48.68;96545.16;4164624;28;5741;-74
2023/01/20 06:11:19;;;;;;;;;;;;;;;2.57;48.76;96547.94;4166200;28;5878;-73
2023/01/20 06:13:24;;;;;;;;;;;;;;;2.58;48.75;96548.75;4162195;28;5741;-74
2023/01/20 06:15:26;;;;;;;;;;;;;;;2.59;48.74;96555.59;4168166;28;5801;-74
2023/01/20 06:17:29;;;;;;;;;;;;;;;2.59;48.59;96560.81;4158319;28;5758;-73
2023/01/20 06:19:32;;;;;;;;;;;;;;;2.61;48.56;96567.56;4163146;28;5980;-73
2023/01/20 06:21:35;;;;;;;;;;;;;;;2.61;48.49;96574.56;4165747;28;5845;-72
2023/01/20 06:23:37;;;;;;;;;;;;;;;2.59;48.50;96574.69;4159991;28;5968;-74
2023/01/20 06:25:40;;;;;;;;;;;;;;;2.57;48.37;96575.81;4157685;28;5755;-73
2023/01/20 06:27:43;;;;;;;;;;;;;;;2.59;48.40;96581.69;4157419;28;5866;-73
2023/01/20 06:29:47;;;;;;;;;;;;;;;2.59;48.39;96587.75;4160891;28;5740;-73
2023/01/20 06:31:50;;;;;;;;;;;;;;;2.61;48.32;96595.44;4163494;28;5726;-73
2023/01/20 06:33:52;;;;;;;;;;;;;;;2.61;48.34;96592.84;4161873;28;5745;-73
2023/01/20 06:35:56;;;;;;;;;;;;;;;2.57;48.26;96597.50;4159404;28;5737;-73
2023/01/20 06:37:58;;;;;;;;;;;;;;;2.55;48.32;96607.28;4159297;28;5750;-73
2023/01/20 06:40:01;;;;;;;;;;;;;;;2.54;48.24;96605.66;4161105;28;5916;-73
2023/01/20 06:42:04;;;;;;;;;;;;;;;2.56;48.11;96608.09;4166470;28;5764;-73
2023/01/20 06:44:07;;;;;;;;;;;;;;;2.57;48.05;96614.97;4165366;28;5848;-73
2023/01/20 06:46:14;;;;;;;;;;;;;;;2.54;48.15;96623.09;4167242;28;5808;-73
2023/01/20 06:48:16;;;;;;;;;;;;;;;2.50;47.98;96624.38;4169128;28;6808;-73
2023/01/20 06:50:19;;;;;;;;;;;;;;;2.46;47.92;96623.00;4169158;28;5888;-73
2023/01/20 06:52:22;;;;;;;;;;;;;;;2.43;47.98;96626.72;4166597;28;5805;-73
2023/01/20 06:54:26;;;;;;;;;;;;;;;2.41;47.99;96626.06;4160164;28;5746;-73
2023/01/20 06:56:29;;;;;;;;;;;;;;;2.41;48.14;96628.66;4166544;28;5824;-73
2023/01/20 06:58:32;;;;;;;;;;;;;;;2.42;47.98;96635.53;4152694;28;6721;-73
2023/01/20 07:00:40;;;;;;;;;;;;;;;2.44;47.98;96632.78;4160753;28;5767;-73
2023/01/20 07:02:45;;;;;;;;;;;;;;;2.49;47.83;96635.75;4157347;28;5729;-74
2023/01/20 07:04:51;;;;;;;;;;;;;;;2.51;47.77;96646.88;4160616;28;6456;-74
2023/01/20 07:06:54;;;;;;;;;;;;;;;2.50;47.75;96643.47;4166554;28;5741;-74
2023/01/20 07:08:57;;;;;;;;;;;;;;;2.51;47.79;96649.50;4161588;28;5914;-74
2023/01/20 07:11:00;;;;;;;;;;;;;;;2.53;47.75;96655.38;4164674;28;5808;-74
2023/01/20 07:13:03;;;;;;;;;;;;;;;2.49;47.74;96654.00;4159912;28;5087;-74
2023/01/20 07:15:07;;;;;;;;;;;;;;;2.48;47.69;96663.63;4152446;28;5751;-73
2023/01/20 07:17:12;;;;;;;;;;;;;;;2.50;47.54;96668.72;4159262;28;5840;-74
2023/01/20 07:19:16;;;;;;;;;;;;;;;2.51;47.52;96670.38;4159648;28;5880;-74
2023/01/20 07:21:20;;;;;;;;;;;;;;;2.52;47.53;96666.78;4154603;28;7432;-74
2023/01/20 07:23:23;;;;;;;;;;;;;;;2.48;47.53;96671.47;4160357;28;5762;-73
2023/01/20 07:25:26;;;;;;;;;;;;;;;2.44;47.62;96671.91;4167316;28;5745;-74
2023/01/20 07:27:30;;;;;;;;;;;;;;;2.41;47.54;96680.03;4160044;28;6437;-73
2023/01/20 07:29:33;;;;;;;;;;;;;;;2.40;47.68;96686.22;4168137;28;5770;-73
2023/01/20 07:31:36;;;;;;;;;;;;;;;2.43;47.69;96685.91;4167755;28;5839;-73
2023/01/20 07:33:39;;;;;;;;;;;;;;;2.49;47.70;96690.53;4164766;28;5837;-73
2023/01/20 07:35:43;;;;;;;;;;;;;;;2.53;47.67;96691.91;4159735;28;5082;-73
2023/01/20 07:37:46;;;;;;;;;;;;;;;2.55;47.59;96687.38;4164387;28;7741;-72
2023/01/20 07:39:49;;;;;;;;;;;;;;;2.59;47.50;96691.31;4154841;28;5866;-73
2023/01/20 07:41:51;;;;;;;;;;;;;;;2.61;47.44;96702.47;4151879;28;6547;-72
2023/01/20 07:43:55;;;;;;;;;;;;;;;2.61;47.23;96705.06;4157474;28;5816;-72
2023/01/20 07:45:58;;;;;;;;;;;;;;;2.61;47.38;96707.69;4160959;28;7722;-73
2023/01/20 07:48:02;;;;;;;;;;;;;;;2.61;47.37;96715.50;4151703;28;5809;-72
2023/01/20 07:50:06;;;;;;;;;;;;;;;2.61;47.29;96710.28;4151885;28;5758;-72
2023/01/20 07:52:10;;;;;;;;;;;;;;;2.65;47.41;96716.03;4152668;28;5763;-73
2023/01/20 07:54:13;;;;;;;;;;;;;;;2.67;47.29;96714.91;4160002;28;5749;-73
2023/01/20 07:56:17;;;;;;;;;;;;;;;2.70;47.31;96730.28;4159968;28;5849;-73
2023/01/20 07:58:20;;;;;;;;;;;;;;;2.74;47.32;96729.03;4165313;28;5721;-72
2023/01/20 08:00:23;;;;;;;;;;;;;;;2.78;47.19;96735.59;4160085;28;5810;-72
2023/01/20 08:02:26;;;;;;;;;;;;;;;2.78;47.06;96737.38;4165566;28;5836;-73
2023/01/20 08:04:28;;;;;;;;;;;;;;;2.84;47.09;96748.06;4157230;28;5730;-73
2023/01/20 08:06:31;;;;;;;;;;;;;;;2.89;46.98;96743.22;4161527;28;5912;-73
2023/01/20 08:08:36;;;;;;;;;;;;;;;2.96;46.94;96750.47;4163612;28;5861;-73
2023/01/20 08:10:39;;;;;;;;;;;;;;;3.00;46.91;96751.81;4161862;28;6101;-73
2023/01/20 08:12:41;;;;;;;;;;;;;;;3.01;46.82;96754.28;4159265;28;5800;-73
2023/01/20 08:14:45;;;;;;;;;;;;;;;3.03;46.89;96761.97;4157214;28;5759;-74
2023/01/20 08:16:48;;;;;;;;;;;;;;;3.08;46.82;96764.97;4163185;28;5737;-73
2023/01/20 08:18:53;;;;;;;;;;;;;;;3.03;46.75;96761.97;4167423;28;5841;-72
2023/01/20 08:20:56;;;;;;;;;;;;;;;3.05;46.71;96766.06;4166937;28;5729;-73
2023/01/20 08:22:59;;;;;;;;;;;;;;;3.07;46.62;96773.78;4153077;28;5762;-73
2023/01/20 08:25:03;;;;;;;;;;;;;;;3.10;46.52;96778.72;4157682;28;5849;-73
2023/01/20 08:27:06;;;;;;;;;;;;;;;3.15;46.62;96777.28;4151963;28;5751;-72
2023/01/20 08:29:09;;;;;;;;;;;;;;;3.24;46.53;96787.81;4165432;28;5866;-72
2023/01/20 08:31:15;;;;;;;;;;;;;;;3.28;46.45;96787.38;4158954;28;5747;-73
2023/01/20 08:33:18;;;;;;;;;;;;;;;3.29;46.45;96793.44;4150921;28;5837;-73
2023/01/20 08:35:21;;;;;;;;;;;;;;;3.28;46.52;96792.59;4159307;28;5741;-72
2023/01/20 08:37:24;;;;;;;;;;;;;;;3.30;46.64;96795.09;4166727;28;5796;-72
2023/01/20 08:39:26;;;;;;;;;;;;;;;3.33;46.66;96806.06;4161362;28;5737;-73
2023/01/20 08:41:34;;;;;;;;;;;;;;;3.38;46.49;96801.19;4159514;28;6493;-73
2023/01/20 08:43:37;;;;;;;;;;;;;;;3.38;46.53;96798.59;4165109;28;5944;-71
2023/01/20 08:45:42;;;;;;;;;;;;;;;3.41;46.53;96808.75;4164600;28;5733;-69
2023/01/20 08:47:45;;;;;;;;;;;;;;;3.48;46.50;96811.59;4166891;28;5212;-72
2023/01/20 08:49:48;;;;;;;;;;;;;;;3.50;46.57;96807.84;4162252;28;5779;-70
2023/01/20 08:51:50;;;;;;;;;;;;;;;3.53;46.58;96811.16;4158416;28;5841;-70
2023/01/20 08:53:53;;;;;;;;;;;;;;;3.54;46.64;96811.00;4164795;28;5757;-70
2023/01/20 08:55:57;;;;;;;;;;;;;;;3.58;46.43;96824.59;4158764;28;5741;-71
2023/01/20 08:58:02;;;;;;;;;;;;;;;3.60;46.64;96823.47;4160825;28;5729;-72
2023/01/20 09:00:09;;;;;;;;;;;;;;;3.61;46.49;96832.94;4166378;28;5865;-72
2023/01/20 09:02:13;;;;;;;;;;;;;;;3.62;46.43;96836.38;4151153;28;5759;-72
2023/01/20 09:04:16;;;;;;;;;;;;;;;3.65;46.48;96838.72;4167627;28;5749;-71
2023/01/20 09:06:20;;;;;;;;;;;;;;;3.68;46.42;96838.41;4158128;28;5766;-72
2023/01/20 09:08:25;;;;;;;;;;;;;;;3.70;46.54;96844.31;4159109;28;5839;-72
2023/01/20 09:10:28;;;;;;;;;;;;;;;3.72;46.53;96843.19;4153176;28;7740;-72
2023/01/20 09:12:31;;;;;;;;;;;;;;;3.75;46.50;96849.94;4167262;28;5759;-72
2023/01/20 09:14:35;;;;;;;;;;;;;;;3.77;46.31;96853.22;4164531;28;7041;-72
2023/01/20 09:16:38;;;;;;;;;;;;;;;3.77;46.45;96861.06;4159307;28;5754;-72
2023/01/20 09:18:40;;;;;;;;;;;;;;;3.78;46.41;96866.13;4162874;28;5749;-72
2023/01/20 09:20:43;;;;;;;;;;;;;;;3.77;46.50;96868.91;4159217;28;5751;-72
2023/01/20 09:22:46;;;;;;;;;;;;;;;3.76;46.43;96865.47;4167429;28;5948;-73
2023/01/20 09:24:49;;;;;;;;;;;;;;;3.75;46.51;96865.63;4154156;28;5790;-72
2023/01/20 09:26:52;;;;;;;;;;;;;;;3.79;46.56;96872.19;4158713;28;5755;-72
2023/01/20 09:28:55;;;;;;;;;;;;;;;3.82;46.54;96874.50;4151017;28;5832;-72
2023/01/20 09:31:00;;;;;;;;;;;;;;;3.86;46.43;96875.03;4165499;28;5725;-72
2023/01/20 09:33:03;;;;;;;;;;;;;;;3.86;46.39;96875.88;4159087;28;5733;-72
2023/01/20 09:35:07;;;;;;;;;;;;;;;3.86;46.53;96883.72;4167405;28;5737;-72
2023/01/20 09:44:30;;;;;;;;;;;;;;;3.91;46.55;96891.09;4154239;28;6041;-72
2023/01/20 09:47:18;;;;;;;;;;;;;;;3.91;46.49;96894.53;4156376;28;5746;-72
2023/01/20 09:54:16;;;;;;;;;;;;;;;3.95;46.43;96893.25;4162050;28;5875;-73
2023/01/20 09:56:22;;;;;;;;;;;;;;;4.01;46.30;96894.47;4153754;28;5862;-73
2023/01/20 09:58:32;;;;;;;;;;;;;;;4.02;46.20;96901.34;4155254;28;5770;-72
2023/01/20 10:00:41;;;;;;;;;;;;;;;4.03;46.45;96901.19;4158719;28;5759;-72
2023/01/20 10:02:51;;;;;;;;;;;;;;;4.04;46.27;96902.00;4166262;28;5718;-72
2023/01/20 10:04:58;;;;;;;;;;;;;;;4.08;46.35;96904.19;4155636;28;5813;-72
2023/01/20 10:07:09;;;;;;;;;;;;;;;4.07;46.32;96905.13;4153474;28;5762;-73
2023/01/20 10:09:22;;;;;;;;;;;;;;;4.09;46.22;96897.97;4161694;28;5744;-72
2023/01/20 10:11:29;;;;;;;;;;;;;;;4.12;46.36;96909.13;4155247;28;5755;-72
2023/01/20 10:13:36;;;;;;;;;;;;;;;4.15;46.35;96911.44;4159028;28;5857;-72
2023/01/20 10:15:43;;;;;;;;;;;;;;;4.19;46.25;96902.28;4161619;28;5766;-72
2023/01/20 10:17:54;;;;;;;;;;;;;;;4.17;46.26;96904.25;4158208;28;5721;-72
2023/01/20 10:20:04;;;;;;;;;;;;;;;4.18;46.27;96901.47;4155536;28;5754;-72
2023/01/20 10:22:11;;;;;;;;;;;;;;;4.21;46.21;96895.13;4169104;28;5737;-72
2023/01/20 10:24:20;;;;;;;;;;;;;;;4.26;46.11;96903.34;4161717;28;5763;-72
2023/01/20 10:26:30;;;;;;;;;;;;;;;4.30;46.13;96900.28;4159782;28;5770;-72
2023/01/20 10:28:38;;;;;;;;;;;;;;;4.31;46.17;96907.16;4164185;28;5734;-72
2023/01/20 10:30:42;;;;;;;;;;;;;;;4.31;46.31;96909.78;4166059;28;5863;-72
2023/01/20 10:32:55;;;;;;;;;;;;;;;4.35;46.07;96907.69;4166531;28;5737;-72
2023/01/20 10:35:01;;;;;;;;;;;;;;;4.35;46.07;96915.53;4163479;28;5747;-72
2023/01/20 10:37:06;;;;;;;;;;;;;;;4.34;46.09;96914.72;4161520;28;5774;-72
2023/01/20 10:39:20;;;;;;;;;;;;;;;4.34;46.27;96912.09;4161552;28;6423;-73
2023/01/20 10:41:31;;;;;;;;;;;;;;;4.37;46.29;96910.97;4161569;28;5733;-73
2023/01/20 10:43:34;;;;;;;;;;;;;;;4.39;46.28;96919.47;4155936;28;5733;-73
2023/01/20 10:45:49;;;;;;;;;;;;;;;4.41;46.09;96921.94;4169639;28;5758;-73
2023/01/20 10:48:08;;;;;;;;;;;;;;;4.37;46.16;96919.63;4161228;28;5725;-73
2023/01/20 10:50:34;;;;;;;;;;;;;;;4.44;46.18;96916.44;4161140;28;5741;-73
2023/01/20 10:53:03;;;;;;;;;;;;;;;4.48;45.92;96923.00;4162478;28;5857;-72
2023/01/20 10:55:18;;;;;;;;;;;;;;;4.44;46.03;96922.47;4163626;28;5766;-73
2023/01/20 10:57:21;;;;;;;;;;;;;;;4.47;46.07;96921.34;4154041;28;5859;-72
2023/01/20 10:59:30;;;;;;;;;;;;;;;4.48;46.09;96918.56;4169226;28;5717;-73
2023/01/20 11:01:32;;;;;;;;;;;;;;;4.50;46.02;96923.66;4167348;28;5749;-73
2023/01/20 11:03:40;;;;;;;;;;;;;;;4.48;46.16;96918.56;4165154;28;6472;-72
2023/01/20 11:05:45;;;;;;;;;;;;;;;4.49;46.02;96917.59;4167360;28;5737;-72
2023/01/20 11:07:50;;;;;;;;;;;;;;;4.50;45.99;96921.03;4168658;28;5745;-73
2023/01/20 11:09:53;;;;;;;;;;;;;;;4.50;46.07;96916.63;4166319;28;5750;-73
2023/01/20 11:11:57;;;;;;;;;;;;;;;4.53;46.05;96921.56;4164441;28;5841;-73
2023/01/20 11:14:00;;;;;;;;;;;;;;;4.56;46.08;96923.88;4166952;28;5896;-73
2023/01/20 11:16:11;;;;;;;;;;;;;;;4.54;46.09;96920.59;4160474;28;5838;-73
2023/01/20 11:18:32;;;;;;;;;;;;;;;4.57;46.07;96925.53;4152211;28;5770;-73
2023/01/20 11:20:37;;;;;;;;;;;;;;;4.57;46.15;96927.31;4167453;28;5744;-72
2023/01/20 11:22:39;;;;;;;;;;;;;;;4.58;46.10;96924.53;4164981;28;5739;-73
2023/01/20 11:24:43;;;;;;;;;;;;;;;4.57;46.26;96920.28;4160180;28;5746;-73
2023/01/20 11:26:46;;;;;;;;;;;;;;;4.60;46.25;96927.00;4154118;28;5767;-73
2023/01/20 11:28:53;;;;;;;;;;;;;;;4.59;46.13;96928.81;4151892;28;5786;-73
2023/01/20 11:30:56;;;;;;;;;;;;;;;4.58;46.15;96927.16;4152198;28;5746;-73
2023/01/20 11:33:17;;;;;;;;;;;;;;;4.60;46.28;96927.00;4165376;28;5722;-73
2023/01/20 11:35:23;;;;;;;;;;;;;;;4.60;46.26;96932.25;4165220;28;5828;-73
2023/01/20 11:37:36;;;;;;;;;;;;;;;4.58;46.22;96929.78;4159777;28;5756;-73
2023/01/20 11:39:44;;;;;;;;;;;;;;;4.61;46.11;96928.66;4160177;28;5729;-73
2023/01/20 11:41:46;;;;;;;;;;;;;;;4.62;46.28;96928.50;4155917;28;5766;-73
2023/01/20 11:43:54;;;;;;;;;;;;;;;4.61;46.16;96933.88;4152320;28;5754;-73
2023/01/20 11:46:21;;;;;;;;;;;;;;;4.59;46.33;96939.28;4165477;28;5258;-73
2023/01/20 11:48:24;;;;;;;;;;;;;;;4.62;46.20;96938.97;4160890;28;6935;-73
2023/01/20 11:50:32;;;;;;;;;;;;;;;4.63;46.17;96932.75;4165871;28;5730;-73
2023/01/20 11:52:38;;;;;;;;;;;;;;;4.65;46.33;96933.44;4159037;28;5733;-74
2023/01/20 11:54:41;;;;;;;;;;;;;;;4.67;46.25;96931.50;4160176;28;5877;-74
2023/01/20 11:56:47;;;;;;;;;;;;;;;4.66;46.22;96932.47;4163688;28;5913;-73
2023/01/20 11:58:54;;;;;;;;;;;;;;;4.67;46.25;96934.09;4159984;28;5106;-72
2023/01/20 12:01:03;;;;;;;;;;;;;;;4.67;46.32;96934.09;4158036;28;7721;-73
2023/01/20 12:03:27;;;;;;;;;;;;;;;4.65;46.19;96938.69;4159897;28;5797;-73
2023/01/20 12:05:39;;;;;;;;;;;;;;;4.67;46.31;96934.09;4165347;28;5741;-74
2023/01/20 12:07:46;;;;;;;;;;;;;;;4.71;46.46;96939.03;4163993;28;5734;-74
2023/01/20 12:09:53;;;;;;;;;;;;;;;4.70;46.34;96934.78;4154617;28;5972;-74
2023/01/20 12:11:59;;;;;;;;;;;;;;;4.73;46.19;96939.69;4165924;28;5749;-73
2023/01/20 12:14:23;;;;;;;;;;;;;;;4.73;46.16;96940.53;4159926;28;5824;-74
2023/01/20 12:16:29;;;;;;;;;;;;;;;4.78;45.96;96940.06;4159729;28;5741;-74
2023/01/20 12:18:37;;;;;;;;;;;;;;;4.80;46.18;96943.34;4159932;28;5770;-74
2023/01/20 12:20:46;;;;;;;;;;;;;;;4.81;45.97;96939.75;4162335;28;5673;-74
2023/01/20 12:23:07;;;;;;;;;;;;;;;4.81;46.30;96942.38;4168089;28;5072;-73
2023/01/20 12:25:18;;;;;;;;;;;;;;;4.79;46.15;96942.53;4159356;28;5737;-73
2023/01/20 12:27:26;;;;;;;;;;;;;;;4.81;46.20;96942.38;4166288;28;5792;-73
2023/01/20 12:29:43;;;;;;;;;;;;;;;4.79;46.33;96947.78;4151649;28;5834;-73
2023/01/20 12:31:49;;;;;;;;;;;;;;;4.79;46.16;96936.47;4164572;28;5741;-73
2023/01/20 12:33:59;;;;;;;;;;;;;;;4.77;46.32;96944.50;4159609;28;5729;-73
2023/01/20 12:36:38;;;;;;;;;;;;;;;4.78;46.34;96948.75;4161405;28;6638;-73
2023/01/20 12:38:55;;;;;;;;;;;;;;;4.81;46.32;96945.00;4163479;28;5729;-73
2023/01/20 12:41:04;;;;;;;;;;;;;;;4.84;46.22;96952.53;4159515;28;5762;-73
2023/01/20 12:43:26;;;;;;;;;;;;;;;4.80;46.18;96945.97;4159198;28;5733;-73
2023/01/20 12:45:47;;;;;;;;;;;;;;;4.80;46.16;96953.84;4165351;28;5980;-73
2023/01/20 12:48:02;;;;;;;;;;;;;;;4.82;46.11;96947.47;4159644;28;5849;-73
2023/01/20 12:50:27;;;;;;;;;;;;;;;4.83;46.18;96956.16;4158446;28;6569;-74
2023/01/20 12:52:53;;;;;;;;;;;;;;;4.87;46.11;96944.38;4157148;28;5763;-73
2023/01/20 12:55:20;;;;;;;;;;;;;;;4.88;46.12;96946.88;4159305;28;5822;-73
2023/01/20 12:57:45;;;;;;;;;;;;;;;4.87;46.16;96953.09;4159016;28;5729;-73
2023/01/20 12:59:55;;;;;;;;;;;;;;;4.88;46.32;96952.09;4163664;28;5823;-73
2023/01/20 13:02:20;;;;;;;;;;;;;;;4.92;46.16;96950.81;4166891;28;6455;-73
2023/01/20 13:04:44;;;;;;;;;;;;;;;4.91;46.14;96951.78;4162118;28;5754;-73
2023/01/20 13:06:57;;;;;;;;;;;;;;;4.93;46.26;96954.25;4155522;28;5829;-73
2023/01/20 13:09:10;;;;;;;;;;;;;;;4.93;46.16;96944.59;4167054;28;5797;-73
2023/01/20 13:11:28;;;;;;;;;;;;;;;4.95;46.23;96947.06;4151793;28;5786;-73
2023/01/20 13:13:39;;;;;;;;;;;;;;;4.96;46.19;96939.03;4158269;28;5879;-73
2023/01/20 13:16:02;;;;;;;;;;;;;;;5.00;46.09;96944.00;4153046;28;5816;-73
2023/01/20 13:18:25;;;;;;;;;;;;;;;4.99;46.22;96939.72;4160962;28;5761;-73
2023/01/20 13:20:30;;;;;;;;;;;;;;;5.01;46.11;96946.44;4164882;28;6439;-73
2023/01/20 13:22:33;;;;;;;;;;;;;;;5.01;46.11;96943.84;4165235;28;5809;-71
2023/01/20 13:24:36;;;;;;;;;;;;;;;4.92;46.11;96947.38;4165407;28;5737;-71
2023/01/20 13:26:41;;;;;;;;;;;;;;;4.89;46.27;96948.50;4161604;28;5753;-71
2023/01/20 13:28:51;;;;;;;;;;;;;;;4.82;46.39;96949.25;4165745;28;5741;-71
2023/01/20 13:30:56;;;;;;;;;;;;;;;4.84;46.44;96947.31;4162178;28;5741;-70
2023/01/20 13:33:03;;;;;;;;;;;;;;;4.88;46.57;96948.66;4163640;28;5903;-70
2023/01/20 13:35:42;;;;;;;;;;;;;;;4.91;46.35;96949.16;4175455;28;6414;-70
2023/01/20 13:37:50;;;;;;;;;;;;;;;4.87;46.30;96950.47;4164326;28;5741;-70
2023/01/20 13:39:54;;;;;;;;;;;;;;;4.88;46.38;96946.88;4155266;28;5766;-70
2023/01/20 13:42:01;;;;;;;;;;;;;;;4.92;46.34;96947.38;4161681;28;5826;-70
2023/01/20 13:44:26;;;;;;;;;;;;;;;4.96;46.44;96956.56;4169260;28;5737;-70
2023/01/20 13:46:47;;;;;;;;;;;;;;;4.97;46.37;96959.00;4153902;28;5754;-70
2023/01/20 13:49:37;;;;;;;;;;;;;;;5.00;46.47;96952.66;4166170;28;5749;-70
2023/01/20 13:51:45;;;;;;;;;;;;;;;5.02;46.40;96966.44;4157140;28;6399;-70
2023/01/20 13:53:48;;;;;;;;;;;;;;;4.99;46.35;96963.31;4168872;28;5819;-70
2023/01/20 13:55:58;;;;;;;;;;;;;;;4.97;46.35;96973.91;4160566;28;5824;-70
2023/01/20 13:58:02;;;;;;;;;;;;;;;4.97;46.49;96969.50;4165515;28;5864;-69
2023/01/20 14:00:16;;;;;;;;;;;;;;;5.01;46.38;96970.03;4163160;28;6070;-70
2023/01/20 14:02:20;;;;;;;;;;;;;;;5.03;46.57;96973.31;4163051;28;5745;-70
2023/01/20 14:04:23;;;;;;;;;;;;;;;5.04;46.49;96976.75;4163347;28;5884;-70
2023/01/20 14:06:27;;;;;;;;;;;;;;;5.01;46.55;96972.66;4162057;28;5765;-70
2023/01/20 14:08:32;;;;;;;;;;;;;;;5.01;46.47;96975.28;4153520;28;5763;-70
2023/01/20 14:10:34;;;;;;;;;;;;;;;5.02;46.47;96979.53;4161471;28;5906;-69
2023/01/20 14:12:40;;;;;;;;;;;;;;;5.01;46.41;96977.88;4161470;28;5892;-70
2023/01/20 14:14:46;;;;;;;;;;;;;;;5.00;46.52;96971.00;4153493;28;5858;-70
2023/01/20 14:16:49;;;;;;;;;;;;;;;5.00;46.52;96976.25;4164333;28;5804;-70
2023/01/20 14:18:54;;;;;;;;;;;;;;;4.98;46.47;96975.56;4162188;28;5874;-70
2023/01/20 14:20:59;;;;;;;;;;;;;;;4.96;46.41;96986.19;4158339;28;5743;-70
2023/01/20 14:23:35;;;;;;;;;;;;;;;4.96;46.59;96986.19;4154669;28;6471;-71
2023/01/20 14:25:38;;;;;;;;;;;;;;;4.97;46.53;96981.78;4088572;28;5850;-67
2023/01/20 14:27:44;;;;;;;;;;;;;;;5.00;46.61;96986.72;4093464;28;5826;-70
2023/01/20 14:29:50;;;;;;;;;;;;;;;5.00;46.56;96989.34;4092101;28;5834;-68
2023/01/20 14:31:53;;;;;;;;;;;;;;;4.98;46.73;96991.28;4099044;28;6629;-70
2023/01/20 14:33:58;;;;;;;;;;;;;;;4.98;46.75;96988.66;4102352;28;5108;-70
2023/01/20 14:36:06;;;;;;;;;;;;;;;4.94;46.73;96989.94;4102387;28;7440;-70
2023/01/20 14:38:16;;;;;;;;;;;;;;;4.95;46.63;96988.97;4101917;28;5864;-70
2023/01/20 14:40:23;;;;;;;;;;;;;;;4.96;46.77;96990.63;4099479;28;5892;-70
2023/01/20 14:42:29;;;;;;;;;;;;;;;4.96;46.58;96994.06;4090780;28;5821;-70
2023/01/20 14:44:32;;;;;;;;;;;;;;;4.95;46.60;96988.97;4087510;28;5881;-70
2023/01/20 14:46:39;;;;;;;;;;;;;;;4.95;46.75;96994.22;4097906;28;5091;-70
2023/01/20 14:48:43;;;;;;;;;;;;;;;4.97;46.75;96989.63;4105934;28;7783;-71
2023/01/20 14:50:51;;;;;;;;;;;;;;;4.94;46.79;96992.56;4101941;28;5852;-70
2023/01/20 14:52:56;;;;;;;;;;;;;;;4.91;46.87;96998.94;4090519;28;5859;-71
2023/01/20 14:54:59;;;;;;;;;;;;;;;4.92;46.86;96995.34;4095682;28;6035;-71
2023/01/20 14:57:19;;;;;;;;;;;;;;;4.90;46.85;96997.31;4097143;28;5943;-67
2023/01/20 14:59:23;;;;;;;;;;;;;;;4.89;46.94;97000.06;4095893;28;5888;-67
2023/01/20 15:01:26;;;;;;;;;;;;;;;4.87;46.96;97002.84;4123424;28;5749;-68
2023/01/20 15:03:38;;;;;;;;;;;;;;;4.87;46.86;97012.47;4159669;28;5936;-69
2023/01/20 15:05:51;;;;;;;;;;;;;;;4.83;47.04;97003.28;4154861;28;5789;-69
2023/01/20 15:08:15;;;;;;;;;;;;;;;4.79;46.90;96996.72;4159677;28;6547;-67
2023/01/20 15:10:18;;;;;;;;;;;;;;;4.81;47.21;97008.69;4158806;28;5464;-68
2023/01/20 15:12:41;;;;;;;;;;;;;;;4.83;47.11;97013.78;4158938;28;6373;-68
2023/01/20 15:14:59;;;;;;;;;;;;;;;4.83;47.18;97006.72;4162483;28;5837;-68
2023/01/20 15:17:08;;;;;;;;;;;;;;;4.88;47.00;97006.28;4156650;28;5832;-68
2023/01/20 15:19:45;;;;;;;;;;;;;;;4.87;47.22;97002.00;4155514;28;5783;-68
2023/01/20 15:21:50;;;;;;;;;;;;;;;4.85;47.29;97009.19;4164359;28;5807;-68
2023/01/20 15:23:53;;;;;;;;;;;;;;;4.83;47.17;97013.78;4157202;28;5840;-68
2023/01/20 15:25:56;;;;;;;;;;;;;;;4.81;47.17;97010.50;4165475;28;5833;-68
2023/01/20 15:27:58;;;;;;;;;;;;;;;4.81;47.30;97015.72;4159219;28;5856;-67
2023/01/20 15:30:18;;;;;;;;;;;;;;;4.80;47.36;97011.47;4158573;28;6634;-68
2023/01/20 15:32:21;;;;;;;;;;;;;;;4.80;47.45;97012.28;4158396;28;5875;-69
2023/01/20 15:34:24;;;;;;;;;;;;;;;4.79;47.50;97010.63;4156772;28;5851;-69
2023/01/20 15:36:32;;;;;;;;;;;;;;;4.81;47.36;97013.09;4161678;28;6137;-69
2023/01/20 15:38:34;;;;;;;;;;;;;;;4.83;47.57;97005.91;4160220;28;6131;-69
2023/01/20 15:40:38;;;;;;;;;;;;;;;4.76;47.42;97010.13;4153494;28;5819;-67
2023/01/20 15:42:41;;;;;;;;;;;;;;;4.68;47.43;97018.72;4157827;28;5832;-68
2023/01/20 15:44:44;;;;;;;;;;;;;;;4.72;47.59;97014.00;4157140;28;5676;-68
2023/01/20 15:46:47;;;;;;;;;;;;;;;4.67;47.48;97020.53;4153563;28;6547;-68
2023/01/20 15:48:50;;;;;;;;;;;;;;;4.56;47.53;97012.91;4160387;28;5916;-68
2023/01/20 15:50:53;;;;;;;;;;;;;;;4.55;47.76;97016.50;4155907;28;5840;-68
2023/01/20 15:52:57;;;;;;;;;;;;;;;4.56;47.76;97017.31;4155281;28;6615;-68
2023/01/20 15:55:00;;;;;;;;;;;;;;;4.60;47.78;97016.84;4154923;28;5733;-68
2023/01/20 15:57:03;;;;;;;;;;;;;;;4.64;47.72;97017.38;4153865;28;5904;-68
2023/01/20 15:59:11;;;;;;;;;;;;;;;4.68;47.64;97019.56;4157979;28;6562;-68
2023/01/20 16:01:16;;;;;;;;;;;;;;;4.72;47.77;97019.25;4156031;28;5737;-68
2023/01/20 16:03:19;;;;;;;;;;;;;;;4.74;47.67;97023.34;4157699;28;5869;-68
2023/01/20 16:05:22;;;;;;;;;;;;;;;4.75;47.63;97016.31;4154987;28;5829;-68
2023/01/20 16:07:24;;;;;;;;;;;;;;;4.79;47.69;97020.28;4158986;28;5864;-68
2023/01/20 16:09:32;;;;;;;;;;;;;;;4.79;47.72;97015.06;4156589;28;5854;-68
2023/01/20 16:11:35;;;;;;;;;;;;;;;4.73;47.69;97021.72;4157672;28;5849;-68
2023/01/20 16:13:38;;;;;;;;;;;;;;;4.73;47.54;97016.47;4155599;28;5759;-68
2023/01/20 16:15:42;;;;;;;;;;;;;;;4.71;47.49;97017.59;4157839;28;5741;-68
2023/01/20 16:17:44;;;;;;;;;;;;;;;4.70;47.38;97021.19;4160869;28;5725;-68
2023/01/20 16:19:48;;;;;;;;;;;;;;;4.70;47.59;97031.66;4162239;28;5819;-68
2023/01/20 16:21:50;;;;;;;;;;;;;;;4.63;47.41;97024.41;4163389;28;5737;-68
2023/01/20 16:23:53;;;;;;;;;;;;;;;4.63;47.59;97023.59;4161234;28;5884;-68
2023/01/20 16:25:57;;;;;;;;;;;;;;;4.64;47.44;97026.06;4158041;28;5755;-68
2023/01/20 16:28:01;;;;;;;;;;;;;;;4.63;47.33;97032.25;4157749;28;5816;-68
2023/01/20 16:30:04;;;;;;;;;;;;;;;4.62;47.55;97020.16;4166831;28;5845;-68
2023/01/20 16:32:07;;;;;;;;;;;;;;;4.66;47.24;97028.53;4162372;28;5816;-69
2023/01/20 16:34:10;;;;;;;;;;;;;;;4.67;47.22;97032.81;4157753;28;5766;-69
2023/01/20 16:36:14;;;;;;;;;;;;;;;4.66;47.25;97026.75;4166350;28;6625;-69
2023/01/20 16:38:20;;;;;;;;;;;;;;;4.66;47.13;97024.13;4152671;28;5668;-69